createdAt,value
2022-08-30T00:01:05.328Z,17.00
2022-08-30T00:03:32.089Z,17.00
2022-08-30T00:05:58.752Z,17.00
2022-08-30T00:08:25.325Z,17.00
2022-08-30T00:10:51.933Z,17.00
2022-08-30T00:13:18.574Z,17.00
2022-08-30T00:15:45.235Z,16.90
2022-08-30T00:18:11.948Z,16.90
2022-08-30T00:20:38.512Z,16.90
2022-08-30T00:23:05.065Z,16.80
2022-08-30T00:25:31.625Z,16.80
2022-08-30T00:27:58.216Z,16.70
2022-08-30T00:30:24.756Z,16.70
2022-08-30T00:32:51.348Z,16.70
2022-08-30T00:35:18.389Z,16.70
2022-08-30T00:37:44.974Z,16.60
2022-08-30T00:40:12.194Z,16.60
2022-08-30T00:42:39.355Z,16.70
2022-08-30T00:45:05.892Z,16.70
2022-08-30T00:47:32.636Z,16.70
2022-08-30T00:49:59.196Z,16.70
2022-08-30T00:52:25.797Z,16.70
2022-08-30T00:54:52.352Z,16.70
2022-08-30T00:57:18.922Z,16.70
2022-08-30T00:59:45.456Z,16.70
2022-08-30T01:02:12.044Z,16.70
2022-08-30T01:04:40.637Z,16.70
2022-08-30T01:07:08.221Z,16.70
2022-08-30T01:09:34.835Z,16.60
2022-08-30T01:12:01.405Z,16.60
2022-08-30T01:14:27.987Z,16.50
2022-08-30T01:16:54.593Z,16.50
2022-08-30T01:19:23.220Z,16.40
2022-08-30T01:21:49.992Z,16.40
2022-08-30T01:24:16.649Z,16.40
2022-08-30T01:26:43.324Z,16.40
2022-08-30T01:29:09.984Z,16.40
2022-08-30T01:31:36.947Z,16.30
2022-08-30T01:34:05.141Z,16.30
2022-08-30T01:36:31.681Z,16.30
2022-08-30T01:38:58.283Z,16.30
2022-08-30T01:41:24.880Z,16.20
2022-08-30T01:43:51.475Z,16.20
2022-08-30T01:46:18.050Z,16.20
2022-08-30T01:48:50.275Z,16.10
2022-08-30T01:51:20.746Z,16.10
2022-08-30T01:53:47.325Z,16.10
2022-08-30T01:56:14.005Z,16.10
2022-08-30T01:58:40.595Z,16.20
2022-08-30T02:01:07.183Z,16.10
2022-08-30T02:03:35.354Z,16.10
2022-08-30T02:06:02.156Z,16.10
2022-08-30T02:08:28.765Z,16.00
2022-08-30T02:10:56.022Z,16.00
2022-08-30T02:13:22.610Z,16.00
2022-08-30T02:15:49.187Z,16.00
2022-08-30T02:18:15.775Z,16.00
2022-08-30T02:20:42.676Z,16.00
2022-08-30T02:23:09.300Z,16.00
2022-08-30T02:25:35.857Z,16.00
2022-08-30T02:28:02.415Z,15.90
2022-08-30T02:30:29.090Z,15.90
2022-08-30T02:32:55.771Z,15.90
2022-08-30T02:35:22.390Z,15.90
2022-08-30T02:37:48.933Z,16.00
2022-08-30T02:40:15.552Z,16.00
2022-08-30T02:42:42.331Z,16.00
2022-08-30T02:45:08.863Z,16.00
2022-08-30T02:47:35.457Z,16.00
2022-08-30T02:50:02.064Z,15.90
2022-08-30T02:52:28.985Z,15.90
2022-08-30T02:54:55.558Z,15.90
2022-08-30T02:57:22.771Z,15.90
2022-08-30T02:59:49.390Z,15.90
2022-08-30T03:02:15.941Z,15.90
2022-08-30T03:04:44.640Z,15.90
2022-08-30T03:07:12.447Z,15.90
2022-08-30T03:09:39.464Z,15.80
2022-08-30T03:12:07.046Z,15.80
2022-08-30T03:14:33.579Z,15.80
2022-08-30T03:17:00.112Z,15.80
2022-08-30T03:19:26.670Z,15.70
2022-08-30T03:21:53.264Z,15.70
2022-08-30T03:24:19.833Z,15.70
2022-08-30T03:26:46.751Z,15.70
2022-08-30T03:29:13.337Z,15.80
2022-08-30T03:31:40.734Z,15.80
2022-08-30T03:34:19.981Z,15.80
2022-08-30T03:36:48.637Z,15.80
2022-08-30T03:39:15.317Z,15.70
2022-08-30T03:41:41.981Z,15.70
2022-08-30T03:44:09.007Z,15.60
2022-08-30T03:46:37.468Z,15.60
2022-08-30T03:49:04.269Z,15.60
2022-08-30T03:51:30.818Z,15.50
2022-08-30T03:53:57.429Z,15.50
2022-08-30T03:56:24.463Z,15.50
2022-08-30T03:58:51.165Z,15.50
2022-08-30T04:01:17.736Z,15.50
2022-08-30T04:03:44.322Z,15.50
2022-08-30T04:06:10.908Z,15.50
2022-08-30T04:08:38.224Z,15.50
2022-08-30T04:11:05.135Z,15.40
2022-08-30T04:13:31.871Z,15.50
2022-08-30T04:15:59.028Z,15.40
2022-08-30T04:18:25.663Z,15.40
2022-08-30T04:20:52.275Z,15.40
2022-08-30T04:23:18.809Z,15.30
2022-08-30T04:25:45.386Z,15.30
2022-08-30T04:28:11.930Z,15.30
2022-08-30T04:30:38.562Z,15.30
2022-08-30T04:33:05.160Z,15.20
2022-08-30T04:35:31.720Z,15.20
2022-08-30T04:37:58.542Z,15.20
2022-08-30T04:40:26.211Z,15.10
2022-08-30T04:42:54.438Z,15.10
2022-08-30T04:45:21.036Z,15.00
2022-08-30T04:47:47.653Z,15.00
2022-08-30T04:50:14.193Z,15.00
2022-08-30T04:52:40.752Z,15.00
2022-08-30T04:55:07.361Z,15.00
2022-08-30T04:57:34.129Z,15.00
2022-08-30T05:00:00.693Z,14.90
2022-08-30T05:02:27.301Z,15.00
2022-08-30T05:05:14.222Z,15.00
2022-08-30T05:07:41.022Z,14.90
2022-08-30T05:10:11.124Z,14.90
2022-08-30T05:12:38.598Z,14.90
2022-08-30T05:15:05.434Z,15.00
2022-08-30T05:17:32.010Z,15.00
2022-08-30T05:19:58.606Z,15.00
2022-08-30T05:22:25.202Z,15.10
2022-08-30T05:24:51.744Z,15.20
2022-08-30T05:27:18.441Z,15.20
2022-08-30T05:29:47.001Z,15.20
2022-08-30T05:32:13.705Z,15.30
2022-08-30T05:34:40.273Z,15.40
2022-08-30T05:37:06.857Z,15.50
2022-08-30T05:39:44.928Z,15.50
2022-08-30T05:42:18.131Z,15.60
2022-08-30T05:44:44.690Z,15.60
2022-08-30T05:47:11.252Z,15.70
2022-08-30T05:49:37.792Z,15.70
2022-08-30T05:52:04.355Z,15.70
2022-08-30T05:54:30.906Z,15.60
2022-08-30T05:56:57.542Z,15.70
2022-08-30T05:59:24.082Z,15.70
2022-08-30T06:01:50.663Z,15.70
2022-08-30T06:04:17.208Z,15.70
2022-08-30T06:06:43.853Z,15.80
2022-08-30T06:09:10.393Z,15.90
2022-08-30T06:11:37.020Z,16.00
2022-08-30T06:14:03.591Z,16.00
2022-08-30T06:16:30.234Z,16.10
2022-08-30T06:18:56.922Z,16.10
2022-08-30T06:21:23.544Z,16.00
2022-08-30T06:23:50.103Z,16.10
2022-08-30T06:26:16.669Z,16.10
2022-08-30T06:28:43.215Z,16.10
2022-08-30T06:31:09.866Z,16.20
2022-08-30T06:33:36.492Z,16.20
2022-08-30T06:36:05.742Z,16.20
2022-08-30T06:38:32.619Z,16.30
2022-08-30T06:40:59.165Z,16.30
2022-08-30T06:43:26.040Z,16.40
2022-08-30T06:45:52.602Z,16.60
2022-08-30T06:48:19.183Z,16.60
2022-08-30T06:50:45.780Z,16.80
2022-08-30T06:53:12.393Z,16.90
2022-08-30T06:55:39.109Z,17.10
2022-08-30T06:58:05.934Z,17.20
2022-08-30T07:00:32.479Z,17.30
2022-08-30T07:02:59.136Z,17.40
2022-08-30T07:05:25.746Z,17.60
2022-08-30T07:07:55.327Z,17.70
2022-08-30T07:10:21.912Z,17.80
2022-08-30T07:12:48.822Z,17.90
2022-08-30T07:15:15.638Z,18.00
2022-08-30T07:18:01.113Z,18.10
2022-08-30T07:20:27.705Z,18.20
2022-08-30T07:23:06.772Z,18.30
2022-08-30T07:25:33.307Z,18.40
2022-08-30T07:27:59.834Z,18.50
2022-08-30T07:30:26.364Z,18.50
2022-08-30T07:32:52.973Z,18.60
2022-08-30T07:35:19.526Z,18.70
2022-08-30T07:37:46.090Z,18.70
2022-08-30T07:40:12.963Z,18.70
2022-08-30T07:42:40.946Z,18.80
2022-08-30T07:45:08.146Z,18.90
2022-08-30T07:47:34.775Z,19.00
2022-08-30T07:50:01.367Z,19.00
2022-08-30T07:52:28.195Z,19.00
2022-08-30T07:54:57.338Z,19.10
2022-08-30T07:57:24.323Z,19.10
2022-08-30T07:59:50.866Z,19.20
2022-08-30T08:02:17.500Z,19.20
2022-08-30T08:04:44.310Z,19.30
2022-08-30T08:07:10.888Z,19.30
2022-08-30T08:09:37.490Z,19.30
2022-08-30T08:12:04.095Z,19.30
2022-08-30T08:14:30.668Z,19.30
2022-08-30T08:16:57.793Z,19.30
2022-08-30T08:19:24.324Z,19.30
2022-08-30T08:22:04.118Z,19.40
2022-08-30T08:24:37.802Z,19.50
2022-08-30T08:27:04.387Z,19.60
2022-08-30T08:29:30.980Z,19.60
2022-08-30T08:31:57.995Z,19.70
2022-08-30T08:34:24.721Z,19.80
2022-08-30T08:36:51.277Z,19.80
2022-08-30T08:39:18.049Z,19.90
2022-08-30T08:41:44.599Z,20.10
2022-08-30T08:44:11.191Z,20.20
2022-08-30T08:46:37.832Z,20.20
2022-08-30T08:49:05.181Z,20.40
2022-08-30T08:51:51.510Z,20.40
2022-08-30T08:54:18.193Z,20.50
2022-08-30T08:56:44.733Z,20.60
2022-08-30T08:59:11.642Z,20.70
2022-08-30T09:01:41.250Z,20.70
2022-08-30T09:04:07.895Z,20.80
2022-08-30T09:06:34.499Z,20.90
2022-08-30T09:09:01.129Z,20.90
2022-08-30T09:11:27.960Z,21.00
2022-08-30T09:13:54.697Z,21.00
2022-08-30T09:16:32.195Z,21.10
2022-08-30T09:18:58.844Z,21.10
2022-08-30T09:21:25.374Z,21.20
2022-08-30T09:23:51.978Z,21.30
2022-08-30T09:26:19.301Z,21.30
2022-08-30T09:28:49.379Z,21.40
2022-08-30T09:31:16.236Z,21.50
2022-08-30T09:33:42.822Z,21.60
2022-08-30T09:36:09.457Z,21.70
2022-08-30T09:38:36.127Z,21.80
2022-08-30T09:41:02.690Z,21.90
2022-08-30T09:43:29.350Z,22.00
2022-08-30T09:45:56.777Z,22.00
2022-08-30T09:48:23.914Z,21.90
2022-08-30T09:50:50.505Z,22.00
2022-08-30T09:53:23.494Z,22.20
2022-08-30T09:55:50.460Z,22.30
2022-08-30T09:58:17.224Z,22.20
2022-08-30T10:00:45.816Z,22.40
2022-08-30T10:03:12.437Z,22.50
2022-08-30T10:05:39.082Z,22.60
2022-08-30T10:08:05.691Z,22.60
2022-08-30T10:10:32.742Z,22.70
2022-08-30T10:12:59.380Z,22.80
2022-08-30T10:15:25.937Z,22.90
2022-08-30T10:17:52.556Z,23.00
2022-08-30T10:20:19.170Z,23.00
2022-08-30T10:22:46.582Z,23.10
2022-08-30T10:27:59.775Z,23.40
2022-08-30T10:30:26.465Z,23.50
2022-08-30T10:32:53.592Z,23.60
2022-08-30T10:35:20.344Z,23.80
2022-08-30T10:37:46.920Z,23.80
2022-08-30T10:40:32.441Z,23.90
2022-08-30T10:42:59.045Z,24.00
2022-08-30T10:45:25.909Z,24.10
2022-08-30T10:47:52.440Z,24.10
2022-08-30T10:50:19.417Z,24.00
2022-08-30T10:52:47.379Z,24.00
2022-08-30T10:55:15.240Z,23.90
2022-08-30T10:57:43.015Z,24.10
2022-08-30T11:00:10.891Z,24.30
2022-08-30T11:02:40.503Z,24.50
2022-08-30T11:05:08.442Z,24.50
2022-08-30T11:07:35.083Z,24.60
2022-08-30T11:10:01.646Z,24.70
2022-08-30T11:12:28.954Z,24.60
2022-08-30T11:14:55.540Z,24.30
2022-08-30T11:17:22.069Z,24.30
2022-08-30T11:19:50.612Z,24.30
2022-08-30T11:22:18.024Z,24.40
2022-08-30T11:24:47.378Z,24.40
2022-08-30T11:27:14.570Z,24.60
2022-08-30T11:29:42.517Z,24.80
2022-08-30T11:32:09.155Z,24.80
2022-08-30T11:34:35.794Z,24.90
2022-08-30T11:37:02.588Z,25.00
2022-08-30T11:39:29.153Z,25.00
2022-08-30T11:41:56.189Z,25.00
2022-08-30T11:44:23.162Z,25.20
2022-08-30T11:46:50.269Z,25.20
2022-08-30T11:49:16.843Z,25.20
2022-08-30T11:51:43.695Z,25.20
2022-08-30T11:54:10.334Z,25.30
2022-08-30T11:56:38.780Z,25.30
2022-08-30T11:59:05.377Z,25.20
2022-08-30T12:01:49.746Z,25.10
2022-08-30T12:04:17.978Z,25.00
2022-08-30T12:06:44.577Z,24.90
2022-08-30T12:09:11.263Z,24.90
2022-08-30T12:11:38.187Z,25.00
2022-08-30T12:14:09.024Z,25.20
2022-08-30T12:16:35.986Z,25.30
2022-08-30T12:19:05.421Z,25.50
2022-08-30T12:21:43.920Z,25.50
2022-08-30T12:24:11.760Z,25.70
2022-08-30T12:26:38.350Z,25.70
2022-08-30T12:29:05.268Z,25.70
2022-08-30T12:31:31.873Z,25.70
2022-08-30T12:34:00.613Z,25.70
2022-08-30T12:36:27.417Z,25.80
2022-08-30T12:38:56.370Z,25.90
2022-08-30T12:41:25.267Z,26.00
2022-08-30T12:43:52.279Z,26.10
2022-08-30T12:46:18.901Z,26.10
2022-08-30T12:48:47.383Z,26.10
2022-08-30T12:51:14.085Z,26.10
2022-08-30T12:53:42.056Z,26.10
2022-08-30T12:56:09.169Z,26.10
2022-08-30T12:58:36.390Z,26.00
2022-08-30T13:01:03.806Z,25.90
2022-08-30T13:03:32.385Z,25.90
2022-08-30T13:05:58.989Z,25.80
2022-08-30T13:08:26.013Z,25.90
2022-08-30T13:10:52.580Z,25.90
2022-08-30T13:13:20.838Z,25.80
2022-08-30T13:15:49.855Z,25.90
2022-08-30T13:18:16.690Z,25.90
2022-08-30T13:20:48.222Z,25.90
2022-08-30T13:23:14.776Z,25.80
2022-08-30T13:25:41.612Z,25.70
2022-08-30T13:28:08.255Z,25.70
2022-08-30T13:30:34.836Z,25.80
2022-08-30T13:33:02.223Z,25.80
2022-08-30T13:35:28.939Z,25.90
2022-08-30T13:37:56.583Z,26.00
2022-08-30T13:40:23.219Z,26.20
2022-08-30T13:42:50.152Z,26.20
2022-08-30T13:48:03.327Z,26.10
2022-08-30T13:50:30.781Z,26.00
2022-08-30T13:52:57.459Z,26.00
2022-08-30T13:55:24.120Z,26.00
2022-08-30T13:57:54.440Z,25.90
2022-08-30T14:00:22.375Z,26.00
2022-08-30T14:02:54.790Z,26.10
2022-08-30T14:08:44.161Z,26.00
2022-08-30T14:10:55.246Z,26.00
2022-08-30T14:13:21.909Z,26.00
2022-08-30T14:15:49.234Z,26.00
2022-08-30T14:18:17.956Z,26.00
2022-08-30T14:20:44.873Z,26.00
2022-08-30T14:23:11.762Z,26.10
2022-08-30T14:25:40.827Z,26.10
2022-08-30T14:28:07.674Z,26.10
2022-08-30T14:30:36.303Z,26.10
2022-08-30T14:33:03.107Z,26.10
2022-08-30T14:35:29.893Z,26.20
2022-08-30T14:37:56.453Z,26.30
2022-08-30T14:40:24.079Z,26.20
2022-08-30T14:42:50.668Z,26.30
2022-08-30T14:45:18.047Z,26.20
2022-08-30T14:47:46.081Z,26.10
2022-08-30T14:50:13.958Z,26.10
2022-08-30T14:52:40.850Z,26.10
2022-08-30T14:55:12.060Z,26.10
2022-08-30T14:57:38.839Z,26.20
2022-08-30T15:00:05.916Z,26.30
2022-08-30T15:02:32.482Z,26.40
2022-08-30T15:04:59.099Z,26.50
2022-08-30T15:07:25.646Z,26.40
2022-08-30T15:09:52.196Z,26.40
2022-08-30T15:12:18.752Z,26.30
2022-08-30T15:14:45.443Z,26.40
2022-08-30T15:17:12.974Z,26.30
2022-08-30T15:19:39.519Z,26.20
2022-08-30T15:22:06.163Z,26.20
2022-08-30T15:24:32.741Z,26.10
2022-08-30T15:26:59.626Z,26.10
2022-08-30T15:29:26.647Z,26.00
2022-08-30T15:31:53.693Z,26.00
2022-08-30T15:34:20.425Z,26.00
2022-08-30T15:36:47.151Z,25.90
2022-08-30T15:39:13.686Z,25.90
2022-08-30T15:41:44.208Z,25.90
2022-08-30T15:44:11.569Z,25.80
2022-08-30T15:46:38.243Z,25.80
2022-08-30T15:49:04.877Z,25.80
2022-08-30T15:51:41.840Z,25.70
2022-08-30T15:54:12.856Z,25.60
2022-08-30T15:56:39.504Z,25.40
2022-08-30T15:59:06.316Z,25.20
2022-08-30T16:01:33.627Z,25.10
2022-08-30T16:04:00.209Z,24.90
2022-08-30T16:06:27.237Z,24.90
2022-08-30T16:08:53.775Z,25.00
2022-08-30T16:11:22.445Z,25.10
2022-08-30T16:13:50.440Z,25.10
2022-08-30T16:16:17.237Z,25.10
2022-08-30T16:18:43.998Z,25.00
2022-08-30T16:21:10.849Z,25.00
2022-08-30T16:23:37.451Z,24.90
2022-08-30T16:26:04.486Z,24.90
2022-08-30T16:28:31.116Z,24.90
2022-08-30T16:30:58.278Z,24.80
2022-08-30T16:33:24.915Z,24.70
2022-08-30T16:35:51.913Z,24.70
2022-08-30T16:38:18.526Z,24.70
2022-08-30T16:40:45.246Z,24.70
2022-08-30T16:43:12.695Z,24.70
2022-08-30T16:45:40.177Z,24.70
2022-08-30T16:48:06.776Z,24.60
2022-08-30T16:50:33.637Z,24.50
2022-08-30T16:53:00.227Z,24.40
2022-08-30T16:55:26.814Z,24.40
2022-08-30T16:57:53.380Z,24.50
2022-08-30T17:00:20.017Z,24.60
2022-08-30T17:02:53.427Z,24.80
2022-08-30T17:05:20.566Z,24.80
2022-08-30T17:07:47.277Z,24.80
2022-08-30T17:10:14.532Z,24.80
2022-08-30T17:12:42.110Z,24.80
2022-08-30T17:15:12.033Z,24.70
2022-08-30T17:17:38.590Z,24.50
2022-08-30T17:20:09.917Z,24.30
2022-08-30T17:22:36.846Z,24.10
2022-08-30T17:25:03.399Z,23.90
2022-08-30T17:27:30.307Z,23.70
2022-08-30T17:29:56.868Z,23.40
2022-08-30T17:32:23.464Z,23.30
2022-08-30T17:34:51.324Z,23.10
2022-08-30T17:37:20.278Z,23.00
2022-08-30T17:39:46.902Z,22.90
2022-08-30T17:42:13.460Z,22.80
2022-08-30T17:44:42.264Z,22.70
2022-08-30T17:47:08.990Z,22.60
2022-08-30T17:49:35.532Z,22.50
2022-08-30T17:52:02.114Z,22.30
2022-08-30T17:54:28.676Z,22.20
2022-08-30T17:56:55.297Z,22.20
2022-08-30T17:59:25.118Z,22.10
2022-08-30T18:01:52.218Z,21.90
2022-08-30T18:04:19.793Z,21.90
2022-08-30T18:06:47.075Z,21.80
2022-08-30T18:09:13.655Z,21.80
2022-08-30T18:11:40.835Z,21.80
2022-08-30T18:14:07.407Z,21.70
2022-08-30T18:16:37.557Z,21.60
2022-08-30T18:19:04.335Z,21.60
2022-08-30T18:21:36.169Z,21.50
2022-08-30T18:24:03.125Z,21.40
2022-08-30T18:26:32.105Z,21.30
2022-08-30T18:28:58.717Z,21.30
2022-08-30T18:31:26.049Z,21.20
2022-08-30T18:33:54.915Z,21.10
2022-08-30T18:36:21.694Z,21.10
2022-08-30T18:38:48.878Z,21.00
2022-08-30T18:41:15.570Z,21.00
2022-08-30T18:43:42.477Z,20.90
2022-08-30T18:46:09.461Z,20.90
2022-08-30T18:48:36.172Z,20.90
2022-08-30T18:51:02.820Z,20.80
2022-08-30T18:53:29.537Z,20.80
2022-08-30T18:55:56.189Z,20.80
2022-08-30T18:58:22.808Z,20.80
2022-08-30T19:00:49.484Z,20.70
2022-08-30T19:03:18.243Z,20.60
2022-08-30T19:05:45.453Z,20.60
2022-08-30T19:08:13.475Z,20.50
2022-08-30T19:10:40.692Z,20.40
2022-08-30T19:13:07.262Z,20.40
2022-08-30T19:15:34.196Z,20.40
2022-08-30T19:18:00.806Z,20.40
2022-08-30T19:20:27.679Z,20.30
2022-08-30T19:23:08.867Z,20.30
2022-08-30T19:25:36.745Z,20.30
2022-08-30T19:28:03.308Z,20.20
2022-08-30T19:30:32.177Z,20.10
2022-08-30T19:32:59.605Z,20.10
2022-08-30T19:35:26.240Z,20.00
2022-08-30T19:37:52.825Z,20.00
2022-08-30T19:40:19.498Z,20.00
2022-08-30T19:42:47.301Z,20.00
2022-08-30T19:45:13.912Z,19.90
2022-08-30T19:47:40.518Z,19.90
2022-08-30T19:50:07.051Z,19.90
2022-08-30T19:52:35.584Z,19.80
2022-08-30T19:55:02.881Z,19.80
2022-08-30T19:57:29.896Z,19.70
2022-08-30T19:59:57.769Z,19.70
2022-08-30T20:02:24.688Z,19.70
2022-08-30T20:04:53.783Z,19.70
2022-08-30T20:07:25.254Z,19.70
2022-08-30T20:09:54.103Z,19.70
2022-08-30T20:12:20.769Z,19.60
2022-08-30T20:14:47.357Z,19.70
2022-08-30T20:17:14.515Z,19.70
2022-08-30T20:19:41.381Z,19.60
2022-08-30T20:22:08.406Z,19.60
2022-08-30T20:27:03.614Z,19.50
2022-08-30T20:29:30.550Z,19.60
2022-08-30T20:31:57.169Z,19.50
2022-08-30T20:34:27.424Z,19.50
2022-08-30T20:36:54.112Z,19.50
2022-08-30T20:39:21.937Z,19.50
2022-08-30T20:41:48.875Z,19.50
2022-08-30T20:44:15.751Z,19.50
2022-08-30T20:46:42.397Z,19.50
2022-08-30T20:49:09.170Z,19.50
2022-08-30T20:51:35.906Z,19.40
2022-08-30T20:54:06.017Z,19.40
2022-08-30T20:56:34.247Z,19.40
2022-08-30T20:59:02.558Z,19.30
2022-08-30T21:01:30.244Z,19.30
2022-08-30T21:03:56.885Z,19.30
2022-08-30T21:06:23.752Z,19.20
2022-08-30T21:08:50.781Z,19.20
2022-08-30T21:11:17.388Z,19.10
2022-08-30T21:13:43.964Z,19.10
2022-08-30T21:16:12.394Z,19.00
2022-08-30T21:18:39.114Z,19.00
2022-08-30T21:21:05.704Z,19.00
2022-08-30T21:23:32.705Z,19.00
2022-08-30T21:25:59.523Z,19.00
2022-08-30T21:28:26.074Z,19.00
2022-08-30T21:30:52.849Z,19.00
2022-08-30T21:33:19.517Z,19.00
2022-08-30T21:36:05.031Z,19.00
2022-08-30T21:38:31.586Z,19.00
2022-08-30T21:40:58.326Z,19.00
2022-08-30T21:43:24.855Z,19.00
2022-08-30T21:45:53.473Z,19.00
2022-08-30T21:48:20.224Z,18.90
2022-08-30T21:50:46.973Z,18.90
2022-08-30T21:53:15.315Z,18.80
2022-08-30T21:55:43.897Z,18.90
2022-08-30T21:58:10.600Z,18.80
2022-08-30T22:00:37.164Z,18.80
2022-08-30T22:03:03.989Z,18.80
2022-08-30T22:05:30.562Z,18.80
2022-08-30T22:07:57.118Z,18.80
2022-08-30T22:10:23.776Z,18.80
2022-08-30T22:12:50.506Z,18.80
2022-08-30T22:15:17.563Z,18.80
2022-08-30T22:17:44.397Z,18.80
2022-08-30T22:20:11.857Z,18.70
2022-08-30T22:22:44.988Z,18.70
2022-08-30T22:25:11.541Z,18.70
2022-08-30T22:27:38.101Z,18.60
2022-08-30T22:30:04.661Z,18.60
2022-08-30T22:32:31.262Z,18.60
2022-08-30T22:34:58.310Z,18.50
2022-08-30T22:37:24.915Z,18.50
2022-08-30T22:39:51.769Z,18.50
2022-08-30T22:42:18.341Z,18.50
2022-08-30T22:44:44.942Z,18.40
2022-08-30T22:47:11.551Z,18.40
2022-08-30T22:49:38.173Z,18.40
2022-08-30T22:52:04.675Z,18.40
2022-08-30T22:54:33.068Z,18.40
2022-08-30T22:56:59.732Z,18.40
2022-08-30T22:59:31.367Z,18.40
2022-08-30T23:01:59.431Z,18.40
2022-08-30T23:04:26.219Z,18.40
2022-08-30T23:06:52.772Z,18.40
2022-08-30T23:09:19.305Z,18.30
2022-08-30T23:11:45.999Z,18.20
2022-08-30T23:14:12.549Z,18.20
2022-08-30T23:16:39.377Z,18.20
2022-08-30T23:19:06.054Z,18.10
2022-08-30T23:21:32.683Z,18.10
2022-08-30T23:24:18.176Z,18.00
2022-08-30T23:27:03.362Z,17.90
2022-08-30T23:29:48.732Z,17.90
2022-08-30T23:32:34.025Z,17.80
2022-08-30T23:35:19.698Z,17.80
2022-08-30T23:38:05.142Z,17.70
2022-08-30T23:40:50.232Z,17.70
2022-08-30T23:43:35.346Z,17.60
2022-08-30T23:46:20.454Z,17.60
2022-08-30T23:49:05.725Z,17.50
2022-08-30T23:51:50.947Z,17.50
2022-08-30T23:54:36.178Z,17.50
2022-08-30T23:57:21.662Z,17.40
